createdAt,value
2023-10-04T00:01:46.967Z,94965.91
2023-10-04T00:06:50.046Z,94960.66
2023-10-04T00:11:51.644Z,94961.84
2023-10-04T00:16:53.597Z,94967.88
2023-10-04T00:21:56.506Z,94971.34
2023-10-04T00:26:58.168Z,94963.13
2023-10-04T00:31:59.734Z,94968.06
2023-10-04T00:37:02.716Z,94963.38
2023-10-04T00:42:04.257Z,94968.50
2023-10-04T00:47:06.543Z,94967.78
2023-10-04T00:52:09.600Z,94967.91
2023-10-04T00:57:11.266Z,94966.63
2023-10-04T01:02:12.877Z,94961.34
2023-10-04T01:07:18.008Z,94961.34
2023-10-04T01:12:22.676Z,94961.72
2023-10-04T01:17:24.314Z,94961.97
2023-10-04T01:22:28.207Z,94967.34
2023-10-04T01:27:29.841Z,94955.25
2023-10-04T01:32:31.461Z,94962.13
2023-10-04T01:37:34.326Z,94954.97
2023-10-04T01:42:35.925Z,94950.75
2023-10-04T01:47:37.729Z,94950.81
2023-10-04T01:52:40.721Z,94955.13
2023-10-04T01:57:42.299Z,94961.16
2023-10-04T02:02:44.895Z,94953.22
2023-10-04T02:07:48.042Z,94949.56
2023-10-04T02:12:50.855Z,94942.81
2023-10-04T02:17:52.479Z,94942.94
2023-10-04T02:22:55.467Z,94950.09
2023-10-04T02:27:57.048Z,94935.75
2023-10-04T02:32:58.754Z,94948.81
2023-10-04T02:38:02.545Z,94947.28
2023-10-04T02:43:04.454Z,94951.66
2023-10-04T02:48:06.838Z,94946.28
2023-10-04T02:53:10.355Z,94950.00
2023-10-04T02:58:11.952Z,94949.75
2023-10-04T03:03:15.041Z,94953.00
2023-10-04T03:08:18.558Z,94957.50
2023-10-04T03:13:22.482Z,94958.19
2023-10-04T03:18:24.106Z,94955.69
2023-10-04T03:23:27.683Z,94973.53
2023-10-04T03:28:29.250Z,94966.00
2023-10-04T03:33:30.820Z,94971.19
2023-10-04T03:38:34.012Z,94980.16
2023-10-04T03:43:35.570Z,94974.00
2023-10-04T03:48:37.224Z,94971.41
2023-10-04T03:53:40.835Z,94970.75
2023-10-04T03:58:42.336Z,94963.13
2023-10-04T04:03:45.002Z,94956.34
2023-10-04T04:08:48.438Z,94969.31
2023-10-04T04:13:50.374Z,94980.31
2023-10-04T04:18:51.968Z,94968.81
2023-10-04T04:23:55.209Z,94964.13
2023-10-04T04:28:56.852Z,94967.97
2023-10-04T04:33:58.486Z,94968.91
2023-10-04T04:39:01.691Z,94969.00
2023-10-04T04:44:03.320Z,94964.22
2023-10-04T04:49:05.596Z,94969.41
2023-10-04T04:54:08.910Z,94972.94
2023-10-04T04:59:10.580Z,94958.22
2023-10-04T05:04:12.370Z,94961.84
2023-10-04T05:09:15.443Z,94967.53
2023-10-04T05:14:17.040Z,94970.94
2023-10-04T05:19:18.615Z,94975.31
2023-10-04T05:24:21.570Z,94985.53
2023-10-04T05:29:23.215Z,94986.53
2023-10-04T05:34:24.843Z,94984.91
2023-10-04T05:39:27.821Z,94984.25
2023-10-04T05:44:29.349Z,94994.28
2023-10-04T05:49:32.391Z,95000.44
2023-10-04T05:54:35.414Z,94993.16
2023-10-04T05:59:37.015Z,94990.41
2023-10-04T06:04:38.638Z,94996.84
2023-10-04T06:09:41.883Z,94989.72
2023-10-04T06:14:43.449Z,94999.06
2023-10-04T06:19:45.072Z,95003.88
2023-10-04T06:24:47.972Z,94986.88
2023-10-04T06:29:49.534Z,95003.72
2023-10-04T06:34:51.161Z,94996.75
2023-10-04T06:39:54.122Z,95007.09
2023-10-04T06:44:55.621Z,95017.75
2023-10-04T06:49:57.288Z,95014.97
2023-10-04T06:55:00.720Z,95011.16
2023-10-04T07:00:02.462Z,95014.97
2023-10-04T07:05:04.219Z,95019.53
2023-10-04T07:10:08.513Z,95020.53
2023-10-04T07:15:11.388Z,95025.38
2023-10-04T07:20:13.597Z,95025.63
2023-10-04T07:25:16.487Z,95030.56
2023-10-04T07:30:18.008Z,95021.50
2023-10-04T07:35:20.916Z,95024.00
2023-10-04T07:40:25.270Z,95028.38
2023-10-04T07:45:27.616Z,95035.09
2023-10-04T07:50:29.333Z,95028.56
2023-10-04T07:55:32.288Z,95036.47
2023-10-04T08:00:35.308Z,95041.44
2023-10-04T08:05:37.312Z,95045.97
2023-10-04T08:10:40.769Z,95033.66
2023-10-04T08:15:42.416Z,95037.97
2023-10-04T08:20:44.074Z,95037.72
2023-10-04T08:25:47.073Z,95040.91
2023-10-04T08:30:48.899Z,95033.69
2023-10-04T08:35:50.530Z,95037.06
2023-10-04T08:40:53.490Z,95031.88
2023-10-04T08:45:57.516Z,95034.75
2023-10-04T08:51:08.702Z,95029.91
2023-10-04T08:56:14.957Z,95037.47
2023-10-04T09:01:35.717Z,95028.13
2023-10-04T09:06:37.643Z,95023.63
2023-10-04T09:11:40.672Z,95025.72
2023-10-04T09:16:42.389Z,95031.34
2023-10-04T09:21:44.518Z,95031.75
2023-10-04T09:26:54.010Z,95016.25
2023-10-04T09:31:55.613Z,95011.22
2023-10-04T09:36:58.055Z,95007.00
2023-10-04T09:42:01.762Z,95002.78
2023-10-04T09:47:04.286Z,95000.38
2023-10-04T09:52:08.096Z,95001.13
2023-10-04T09:57:11.185Z,94993.84
2023-10-04T10:02:15.373Z,94994.59
2023-10-04T10:07:20.722Z,94993.03
2023-10-04T10:12:24.371Z,94997.31
2023-10-04T10:17:26.174Z,94987.78
2023-10-04T10:22:28.348Z,94987.41
2023-10-04T10:27:31.245Z,94990.56
2023-10-04T10:32:32.895Z,94985.69
2023-10-04T10:37:34.588Z,94985.72
2023-10-04T10:43:05.937Z,94989.81
2023-10-04T10:48:08.928Z,94979.38
2023-10-04T10:53:11.847Z,94970.84
2023-10-04T10:58:13.759Z,94973.69
2023-10-04T11:03:19.792Z,94984.19
2023-10-04T11:08:21.569Z,94981.31
2023-10-04T11:13:25.398Z,94990.63
2023-10-04T11:18:30.092Z,94981.34
2023-10-04T11:23:31.851Z,94971.28
2023-10-04T11:28:33.980Z,94963.41
2023-10-04T11:33:50.552Z,94948.69
2023-10-04T11:38:53.169Z,94949.69
2023-10-04T11:43:58.210Z,94952.09
2023-10-04T11:49:16.026Z,94940.47
2023-10-04T11:54:17.927Z,94929.09
2023-10-04T11:59:29.230Z,94930.94
2023-10-04T12:04:33.752Z,94932.19
2023-10-04T12:09:35.611Z,94923.88
2023-10-04T12:14:37.280Z,94918.81
2023-10-04T12:19:40.646Z,94921.75
2023-10-04T12:24:42.668Z,94909.81
2023-10-04T12:29:44.490Z,94892.13
2023-10-04T12:34:47.971Z,94896.69
2023-10-04T12:39:49.725Z,94893.66
2023-10-04T12:44:52.950Z,94889.38
2023-10-04T12:49:57.802Z,94886.81
2023-10-04T12:54:59.369Z,94880.72
2023-10-04T13:00:01.474Z,94884.28
2023-10-04T13:05:05.135Z,94876.63
2023-10-04T13:10:07.618Z,94881.34
2023-10-04T13:15:10.492Z,94886.75
2023-10-04T13:20:13.513Z,94891.72
2023-10-04T13:25:15.341Z,94885.38
2023-10-04T13:30:16.903Z,94873.75
2023-10-04T13:35:19.798Z,94862.31
2023-10-04T13:40:21.665Z,94869.66
2023-10-04T13:45:23.373Z,94874.94
2023-10-04T13:50:26.359Z,94874.56
2023-10-04T13:55:27.867Z,94864.75
2023-10-04T14:00:29.565Z,94878.19
2023-10-04T14:05:32.650Z,94869.69
2023-10-04T14:10:34.599Z,94861.56
2023-10-04T14:15:36.138Z,94858.81
2023-10-04T14:20:39.074Z,94859.28
2023-10-04T14:25:40.826Z,94848.97
2023-10-04T14:30:42.387Z,94835.94
2023-10-04T14:35:46.601Z,94833.94
2023-10-04T14:45:52.664Z,94819.22
2023-10-04T14:56:03.220Z,94805.50
2023-10-04T15:01:09.695Z,94809.41
2023-10-04T15:06:15.739Z,94815.53
2023-10-04T15:11:26.685Z,94822.00
2023-10-04T15:16:28.364Z,94820.13
2023-10-04T15:21:31.520Z,94827.28
2023-10-04T15:26:33.111Z,94833.72
2023-10-04T15:31:34.745Z,94839.56
2023-10-04T15:36:37.784Z,94842.78
2023-10-04T15:41:39.318Z,94849.88
2023-10-04T15:46:41.023Z,94845.53
2023-10-04T15:51:44.204Z,94853.25
2023-10-04T15:56:45.834Z,94843.41
2023-10-04T16:01:49.309Z,94845.25
2023-10-04T16:06:52.431Z,94839.22
2023-10-04T16:11:54.059Z,94835.63
2023-10-04T16:16:55.669Z,94833.22
2023-10-04T16:21:58.650Z,94836.84
2023-10-04T16:27:00.247Z,94829.41
2023-10-04T16:32:01.873Z,94826.34
2023-10-04T16:37:04.941Z,94830.19
2023-10-04T16:42:06.597Z,94834.09
2023-10-04T16:47:08.175Z,94837.19
2023-10-04T16:52:11.106Z,94842.88
2023-10-04T16:57:12.652Z,94836.69
2023-10-04T17:02:14.240Z,94835.66
2023-10-04T17:07:17.382Z,94835.19
2023-10-04T17:12:18.983Z,94831.63
2023-10-04T17:17:20.601Z,94840.56
2023-10-04T17:22:23.642Z,94845.25
2023-10-04T17:27:25.250Z,94852.34
2023-10-04T17:32:27.049Z,94855.69
2023-10-04T17:37:30.068Z,94856.78
2023-10-04T17:42:32.567Z,94867.59
2023-10-04T17:47:34.251Z,94869.63
2023-10-04T17:52:37.227Z,94873.84
2023-10-04T17:57:39.442Z,94877.09
2023-10-04T18:02:41.875Z,94870.91
2023-10-04T18:07:44.886Z,94871.47
2023-10-04T18:12:46.682Z,94885.75
2023-10-04T18:17:49.344Z,94888.47
2023-10-04T18:22:55.203Z,94891.69
2023-10-04T18:27:56.854Z,94876.84
2023-10-04T18:33:01.067Z,94863.94
2023-10-04T18:38:05.380Z,94864.06
2023-10-04T18:43:07.009Z,94860.47
2023-10-04T18:48:08.761Z,94859.84
2023-10-04T18:53:13.644Z,94861.00
2023-10-04T18:58:15.423Z,94858.56
2023-10-04T19:03:17.254Z,94852.81
2023-10-04T19:08:20.338Z,94855.91
2023-10-04T19:13:21.971Z,94857.31
2023-10-04T19:18:23.581Z,94845.56
2023-10-04T19:23:26.825Z,94844.22
2023-10-04T19:28:28.652Z,94835.16
2023-10-04T19:33:31.610Z,94845.47
2023-10-04T19:38:34.693Z,94848.16
2023-10-04T19:43:36.234Z,94846.72
2023-10-04T19:48:39.290Z,94848.34
2023-10-04T19:53:44.037Z,94840.28
2023-10-04T19:58:45.639Z,94848.81
2023-10-04T20:03:47.400Z,94852.13
2023-10-04T20:08:50.779Z,94846.19
2023-10-04T20:13:52.429Z,94845.56
2023-10-04T20:18:54.005Z,94855.34
2023-10-04T20:23:57.001Z,94858.75
2023-10-04T20:28:58.722Z,94849.31
2023-10-04T20:34:00.460Z,94851.25
2023-10-04T20:39:03.563Z,94846.59
2023-10-04T20:44:06.015Z,94849.72
2023-10-04T20:49:07.976Z,94843.25
2023-10-04T20:54:11.002Z,94853.13
2023-10-04T20:59:12.600Z,94843.06
2023-10-04T21:04:14.531Z,94842.78
2023-10-04T21:09:17.491Z,94838.91
2023-10-04T21:14:22.538Z,94831.91
2023-10-04T21:19:24.204Z,94832.44
2023-10-04T21:24:27.183Z,94828.63
2023-10-04T21:29:28.842Z,94841.00
2023-10-04T21:34:30.477Z,94842.19
2023-10-04T21:39:33.465Z,94843.19
2023-10-04T21:44:34.981Z,94839.28
2023-10-04T21:49:36.805Z,94837.94
2023-10-04T21:54:39.694Z,94829.06
2023-10-04T21:59:41.281Z,94819.94
2023-10-04T22:04:42.947Z,94812.03
2023-10-04T22:09:46.410Z,94815.06
2023-10-04T22:14:48.049Z,94819.66
2023-10-04T22:19:49.606Z,94825.19
2023-10-04T22:25:02.468Z,94819.22
2023-10-04T22:30:06.181Z,94815.00
2023-10-04T22:35:08.944Z,94820.69
2023-10-04T22:40:15.069Z,94818.66
2023-10-04T22:45:17.157Z,94817.47
2023-10-04T22:50:19.282Z,94807.94
2023-10-04T22:55:22.262Z,94787.06
2023-10-04T23:00:24.034Z,94782.81
2023-10-04T23:05:26.123Z,94775.41
2023-10-04T23:10:29.295Z,94774.72
2023-10-04T23:15:31.120Z,94780.53
2023-10-04T23:20:32.791Z,94780.19
2023-10-04T23:25:35.709Z,94771.66
2023-10-04T23:30:37.235Z,94765.25
2023-10-04T23:35:38.858Z,94773.06
2023-10-04T23:40:42.204Z,94769.19
2023-10-04T23:45:43.866Z,94763.19
2023-10-04T23:50:45.412Z,94774.72
2023-10-04T23:55:50.132Z,94775.94
